sensor_id;sensor_type;location;lat;lon;timestamp;temperature;humidity
17348;DHT22;8791;50.876;4.342;2023-04-03T00:00:09;5.50;99.90
17348;DHT22;8791;50.876;4.342;2023-04-03T00:02:36;5.60;99.90
17348;DHT22;8791;50.876;4.342;2023-04-03T00:05:03;5.50;99.90
17348;DHT22;8791;50.876;4.342;2023-04-03T00:07:31;5.40;99.90
17348;DHT22;8791;50.876;4.342;2023-04-03T00:09:57;5.50;99.90
17348;DHT22;8791;50.876;4.342;2023-04-03T00:12:26;5.40;99.90
17348;DHT22;8791;50.876;4.342;2023-04-03T00:14:52;5.40;99.90
17348;DHT22;8791;50.876;4.342;2023-04-03T00:17:19;5.30;99.90
17348;DHT22;8791;50.876;4.342;2023-04-03T00:19:46;5.30;99.90
17348;DHT22;8791;50.876;4.342;2023-04-03T00:22:13;5.20;99.90
17348;DHT22;8791;50.876;4.342;2023-04-03T00:24:39;5.20;99.90
17348;DHT22;8791;50.876;4.342;2023-04-03T00:27:06;5.10;99.90
17348;DHT22;8791;50.876;4.342;2023-04-03T00:29:34;5.10;99.90
17348;DHT22;8791;50.876;4.342;2023-04-03T00:32:01;5.10;99.90
17348;DHT22;8791;50.876;4.342;2023-04-03T00:34:28;5.20;99.90
17348;DHT22;8791;50.876;4.342;2023-04-03T00:36:55;5.20;99.90
17348;DHT22;8791;50.876;4.342;2023-04-03T00:39:21;5.20;99.90
17348;DHT22;8791;50.876;4.342;2023-04-03T00:41:48;5.20;99.90
17348;DHT22;8791;50.876;4.342;2023-04-03T00:44:23;5.20;99.90
17348;DHT22;8791;50.876;4.342;2023-04-03T00:47:12;5.30;99.90
17348;DHT22;8791;50.876;4.342;2023-04-03T00:49:40;5.30;99.90
17348;DHT22;8791;50.876;4.342;2023-04-03T00:52:10;5.20;99.90
17348;DHT22;8791;50.876;4.342;2023-04-03T00:54:39;5.20;99.90
17348;DHT22;8791;50.876;4.342;2023-04-03T00:57:07;5.20;99.90
17348;DHT22;8791;50.876;4.342;2023-04-03T00:59:39;5.20;99.90
17348;DHT22;8791;50.876;4.342;2023-04-03T01:02:07;5.10;99.90
17348;DHT22;8791;50.876;4.342;2023-04-03T01:04:37;5.10;99.90
17348;DHT22;8791;50.876;4.342;2023-04-03T01:07:08;5.10;99.90
17348;DHT22;8791;50.876;4.342;2023-04-03T01:09:35;5.10;99.90
17348;DHT22;8791;50.876;4.342;2023-04-03T01:12:16;5.10;99.90
17348;DHT22;8791;50.876;4.342;2023-04-03T01:14:43;5.00;99.90
17348;DHT22;8791;50.876;4.342;2023-04-03T01:17:35;5.00;99.90
17348;DHT22;8791;50.876;4.342;2023-04-03T01:20:36;4.80;99.90
17348;DHT22;8791;50.876;4.342;2023-04-03T01:23:16;4.80;99.90
17348;DHT22;8791;50.876;4.342;2023-04-03T01:25:46;4.60;99.90
17348;DHT22;8791;50.876;4.342;2023-04-03T01:28:15;4.60;99.90
17348;DHT22;8791;50.876;4.342;2023-04-03T01:30:47;4.60;99.90
17348;DHT22;8791;50.876;4.342;2023-04-03T01:33:16;4.70;99.90
17348;DHT22;8791;50.876;4.342;2023-04-03T01:35:43;4.70;99.90
17348;DHT22;8791;50.876;4.342;2023-04-03T01:38:10;4.70;99.90
17348;DHT22;8791;50.876;4.342;2023-04-03T01:40:37;4.70;99.90
17348;DHT22;8791;50.876;4.342;2023-04-03T01:43:04;4.70;99.90
17348;DHT22;8791;50.876;4.342;2023-04-03T01:45:31;4.70;99.90
17348;DHT22;8791;50.876;4.342;2023-04-03T01:47:57;4.80;99.90
17348;DHT22;8791;50.876;4.342;2023-04-03T01:50:26;4.80;99.90
17348;DHT22;8791;50.876;4.342;2023-04-03T01:52:52;4.70;99.90
17348;DHT22;8791;50.876;4.342;2023-04-03T01:55:19;4.60;99.90
17348;DHT22;8791;50.876;4.342;2023-04-03T01:57:46;4.60;99.90
17348;DHT22;8791;50.876;4.342;2023-04-03T02:00:14;4.60;99.90
17348;DHT22;8791;50.876;4.342;2023-04-03T02:02:41;4.40;99.90
17348;DHT22;8791;50.876;4.342;2023-04-03T02:05:08;4.40;99.90
17348;DHT22;8791;50.876;4.342;2023-04-03T02:07:36;4.40;99.90
17348;DHT22;8791;50.876;4.342;2023-04-03T02:10:04;4.30;99.90
17348;DHT22;8791;50.876;4.342;2023-04-03T02:12:30;4.40;99.90
17348;DHT22;8791;50.876;4.342;2023-04-03T02:14:57;4.40;99.90
17348;DHT22;8791;50.876;4.342;2023-04-03T02:17:24;4.40;99.90
17348;DHT22;8791;50.876;4.342;2023-04-03T02:19:51;4.30;99.90
17348;DHT22;8791;50.876;4.342;2023-04-03T02:22:18;4.30;99.90
17348;DHT22;8791;50.876;4.342;2023-04-03T02:24:47;4.20;99.90
17348;DHT22;8791;50.876;4.342;2023-04-03T02:27:13;4.20;99.90
17348;DHT22;8791;50.876;4.342;2023-04-03T02:29:41;4.10;99.90
17348;DHT22;8791;50.876;4.342;2023-04-03T02:32:08;4.10;99.90
17348;DHT22;8791;50.876;4.342;2023-04-03T02:34:34;4.10;99.90
17348;DHT22;8791;50.876;4.342;2023-04-03T02:37:01;4.10;99.90
17348;DHT22;8791;50.876;4.342;2023-04-03T02:39:28;3.90;99.90
17348;DHT22;8791;50.876;4.342;2023-04-03T02:41:56;4.00;99.90
17348;DHT22;8791;50.876;4.342;2023-04-03T02:44:23;4.10;99.90
17348;DHT22;8791;50.876;4.342;2023-04-03T02:46:50;4.30;99.90
17348;DHT22;8791;50.876;4.342;2023-04-03T02:49:17;4.30;99.90
17348;DHT22;8791;50.876;4.342;2023-04-03T02:51:44;4.20;99.90
17348;DHT22;8791;50.876;4.342;2023-04-03T02:54:11;4.10;99.90
17348;DHT22;8791;50.876;4.342;2023-04-03T02:56:38;4.00;99.90
17348;DHT22;8791;50.876;4.342;2023-04-03T02:59:06;4.00;99.90
17348;DHT22;8791;50.876;4.342;2023-04-03T03:01:32;4.00;99.90
17348;DHT22;8791;50.876;4.342;2023-04-03T03:03:59;3.90;99.90
17348;DHT22;8791;50.876;4.342;2023-04-03T03:06:26;3.90;99.90
17348;DHT22;8791;50.876;4.342;2023-04-03T03:08:53;3.90;99.90
17348;DHT22;8791;50.876;4.342;2023-04-03T03:11:20;3.90;99.90
17348;DHT22;8791;50.876;4.342;2023-04-03T03:13:47;3.90;99.90
17348;DHT22;8791;50.876;4.342;2023-04-03T03:16:15;3.70;99.90
17348;DHT22;8791;50.876;4.342;2023-04-03T03:18:42;3.70;99.90
17348;DHT22;8791;50.876;4.342;2023-04-03T03:21:09;3.60;99.90
17348;DHT22;8791;50.876;4.342;2023-04-03T03:23:36;3.70;99.90
17348;DHT22;8791;50.876;4.342;2023-04-03T03:26:05;3.70;99.90
17348;DHT22;8791;50.876;4.342;2023-04-03T03:28:32;3.70;99.90
17348;DHT22;8791;50.876;4.342;2023-04-03T03:30:59;3.80;99.90
17348;DHT22;8791;50.876;4.342;2023-04-03T03:33:28;3.80;99.90
17348;DHT22;8791;50.876;4.342;2023-04-03T03:35:55;3.90;99.90
17348;DHT22;8791;50.876;4.342;2023-04-03T03:38:23;3.90;99.90
17348;DHT22;8791;50.876;4.342;2023-04-03T03:40:50;3.90;99.90
17348;DHT22;8791;50.876;4.342;2023-04-03T03:43:17;3.60;99.90
17348;DHT22;8791;50.876;4.342;2023-04-03T03:45:44;3.50;99.90
17348;DHT22;8791;50.876;4.342;2023-04-03T03:48:11;3.60;99.90
17348;DHT22;8791;50.876;4.342;2023-04-03T03:50:39;3.70;99.90
17348;DHT22;8791;50.876;4.342;2023-04-03T03:53:06;3.60;99.90
17348;DHT22;8791;50.876;4.342;2023-04-03T03:55:33;3.60;99.90
17348;DHT22;8791;50.876;4.342;2023-04-03T03:58:00;3.70;99.90
17348;DHT22;8791;50.876;4.342;2023-04-03T04:00:27;3.70;99.90
17348;DHT22;8791;50.876;4.342;2023-04-03T04:02:55;3.60;99.90
17348;DHT22;8791;50.876;4.342;2023-04-03T04:05:22;3.60;99.90
17348;DHT22;8791;50.876;4.342;2023-04-03T04:07:50;3.60;99.90
17348;DHT22;8791;50.876;4.342;2023-04-03T04:10:17;3.60;99.90
17348;DHT22;8791;50.876;4.342;2023-04-03T04:12:44;3.60;99.90
17348;DHT22;8791;50.876;4.342;2023-04-03T04:15:11;3.70;99.90
17348;DHT22;8791;50.876;4.342;2023-04-03T04:17:38;3.70;99.90
17348;DHT22;8791;50.876;4.342;2023-04-03T04:20:05;3.50;99.90
17348;DHT22;8791;50.876;4.342;2023-04-03T04:22:32;3.40;99.90
17348;DHT22;8791;50.876;4.342;2023-04-03T04:25:00;3.40;99.90
17348;DHT22;8791;50.876;4.342;2023-04-03T04:27:27;3.40;99.90
17348;DHT22;8791;50.876;4.342;2023-04-03T04:29:53;3.50;99.90
17348;DHT22;8791;50.876;4.342;2023-04-03T04:32:20;3.50;99.90
17348;DHT22;8791;50.876;4.342;2023-04-03T04:34:47;3.50;99.90
17348;DHT22;8791;50.876;4.342;2023-04-03T04:37:14;3.50;99.90
17348;DHT22;8791;50.876;4.342;2023-04-03T04:39:41;3.50;99.90
17348;DHT22;8791;50.876;4.342;2023-04-03T04:42:09;3.50;99.90
17348;DHT22;8791;50.876;4.342;2023-04-03T04:44:38;3.50;99.90
17348;DHT22;8791;50.876;4.342;2023-04-03T04:47:05;3.40;99.90
17348;DHT22;8791;50.876;4.342;2023-04-03T04:49:32;3.40;99.90
17348;DHT22;8791;50.876;4.342;2023-04-03T04:51:58;3.30;99.90
17348;DHT22;8791;50.876;4.342;2023-04-03T04:54:25;3.40;99.90
17348;DHT22;8791;50.876;4.342;2023-04-03T04:56:52;3.30;99.90
17348;DHT22;8791;50.876;4.342;2023-04-03T04:59:20;3.30;99.90
17348;DHT22;8791;50.876;4.342;2023-04-03T05:01:47;3.20;99.90
17348;DHT22;8791;50.876;4.342;2023-04-03T05:04:14;3.10;99.90
17348;DHT22;8791;50.876;4.342;2023-04-03T05:06:41;3.30;99.90
17348;DHT22;8791;50.876;4.342;2023-04-03T05:09:07;3.20;99.90
17348;DHT22;8791;50.876;4.342;2023-04-03T05:11:35;3.40;99.90
17348;DHT22;8791;50.876;4.342;2023-04-03T05:14:02;3.40;99.90
17348;DHT22;8791;50.876;4.342;2023-04-03T05:16:33;3.40;99.90
17348;DHT22;8791;50.876;4.342;2023-04-03T05:19:00;3.40;99.90
17348;DHT22;8791;50.876;4.342;2023-04-03T05:21:27;3.30;99.90
17348;DHT22;8791;50.876;4.342;2023-04-03T05:23:57;3.30;99.90
17348;DHT22;8791;50.876;4.342;2023-04-03T05:26:24;3.20;99.90
17348;DHT22;8791;50.876;4.342;2023-04-03T05:28:52;3.10;99.90
17348;DHT22;8791;50.876;4.342;2023-04-03T05:31:18;3.10;99.90
17348;DHT22;8791;50.876;4.342;2023-04-03T05:33:47;3.10;99.90
17348;DHT22;8791;50.876;4.342;2023-04-03T05:36:14;3.20;99.90
17348;DHT22;8791;50.876;4.342;2023-04-03T05:38:40;3.30;99.90
17348;DHT22;8791;50.876;4.342;2023-04-03T05:41:07;3.30;99.90
17348;DHT22;8791;50.876;4.342;2023-04-03T05:43:34;3.30;99.90
17348;DHT22;8791;50.876;4.342;2023-04-03T05:46:03;3.40;99.90
17348;DHT22;8791;50.876;4.342;2023-04-03T05:48:30;3.30;99.90
17348;DHT22;8791;50.876;4.342;2023-04-03T05:50:58;3.40;99.90
17348;DHT22;8791;50.876;4.342;2023-04-03T05:53:28;3.50;99.90
17348;DHT22;8791;50.876;4.342;2023-04-03T05:55:55;3.30;99.90
17348;DHT22;8791;50.876;4.342;2023-04-03T05:58:22;3.20;99.90
17348;DHT22;8791;50.876;4.342;2023-04-03T06:00:49;3.30;99.90
17348;DHT22;8791;50.876;4.342;2023-04-03T06:03:16;3.20;99.90
17348;DHT22;8791;50.876;4.342;2023-04-03T06:05:43;3.20;99.90
17348;DHT22;8791;50.876;4.342;2023-04-03T06:08:13;3.30;99.90
17348;DHT22;8791;50.876;4.342;2023-04-03T06:10:40;3.30;99.90
17348;DHT22;8791;50.876;4.342;2023-04-03T06:13:07;3.40;99.90
17348;DHT22;8791;50.876;4.342;2023-04-03T06:15:34;3.50;99.90
17348;DHT22;8791;50.876;4.342;2023-04-03T06:18:01;3.70;99.90
17348;DHT22;8791;50.876;4.342;2023-04-03T06:20:27;3.80;99.90
17348;DHT22;8791;50.876;4.342;2023-04-03T06:22:54;3.70;99.90
17348;DHT22;8791;50.876;4.342;2023-04-03T06:25:22;3.70;99.90
17348;DHT22;8791;50.876;4.342;2023-04-03T06:27:49;3.80;99.90
17348;DHT22;8791;50.876;4.342;2023-04-03T06:30:17;3.80;99.90
17348;DHT22;8791;50.876;4.342;2023-04-03T06:32:43;3.80;99.90
17348;DHT22;8791;50.876;4.342;2023-04-03T06:35:10;3.90;99.90
17348;DHT22;8791;50.876;4.342;2023-04-03T06:37:37;3.80;99.90
17348;DHT22;8791;50.876;4.342;2023-04-03T06:40:05;3.80;99.90
17348;DHT22;8791;50.876;4.342;2023-04-03T06:42:33;4.00;99.90
17348;DHT22;8791;50.876;4.342;2023-04-03T06:45:00;4.20;99.90
17348;DHT22;8791;50.876;4.342;2023-04-03T06:47:27;4.10;99.90
17348;DHT22;8791;50.876;4.342;2023-04-03T06:49:54;4.10;99.90
17348;DHT22;8791;50.876;4.342;2023-04-03T06:52:21;4.10;99.90
17348;DHT22;8791;50.876;4.342;2023-04-03T06:54:48;4.30;99.90
17348;DHT22;8791;50.876;4.342;2023-04-03T06:57:17;4.40;99.90
17348;DHT22;8791;50.876;4.342;2023-04-03T06:59:45;4.40;99.90
17348;DHT22;8791;50.876;4.342;2023-04-03T07:02:12;4.40;99.90
17348;DHT22;8791;50.876;4.342;2023-04-03T07:04:39;4.50;99.90
17348;DHT22;8791;50.876;4.342;2023-04-03T07:07:06;4.40;99.90
17348;DHT22;8791;50.876;4.342;2023-04-03T07:09:33;4.40;99.90
17348;DHT22;8791;50.876;4.342;2023-04-03T07:12:00;4.50;99.90
17348;DHT22;8791;50.876;4.342;2023-04-03T07:14:27;4.50;99.90
17348;DHT22;8791;50.876;4.342;2023-04-03T07:16:55;4.50;99.90
17348;DHT22;8791;50.876;4.342;2023-04-03T07:19:22;4.50;99.90
17348;DHT22;8791;50.876;4.342;2023-04-03T07:21:49;4.60;99.90
17348;DHT22;8791;50.876;4.342;2023-04-03T07:24:16;4.70;99.90
17348;DHT22;8791;50.876;4.342;2023-04-03T07:26:43;4.70;99.90
17348;DHT22;8791;50.876;4.342;2023-04-03T07:29:10;4.60;99.90
17348;DHT22;8791;50.876;4.342;2023-04-03T07:31:38;4.70;99.90
17348;DHT22;8791;50.876;4.342;2023-04-03T07:34:08;4.60;99.90
17348;DHT22;8791;50.876;4.342;2023-04-03T07:36:35;4.70;99.90
17348;DHT22;8791;50.876;4.342;2023-04-03T07:39:03;4.70;99.90
17348;DHT22;8791;50.876;4.342;2023-04-03T07:41:30;4.70;99.90
17348;DHT22;8791;50.876;4.342;2023-04-03T07:43:57;4.80;99.90
17348;DHT22;8791;50.876;4.342;2023-04-03T07:46:24;4.90;99.90
17348;DHT22;8791;50.876;4.342;2023-04-03T07:48:51;5.00;99.90
17348;DHT22;8791;50.876;4.342;2023-04-03T07:51:19;5.10;99.90
17348;DHT22;8791;50.876;4.342;2023-04-03T07:53:46;5.10;99.90
17348;DHT22;8791;50.876;4.342;2023-04-03T07:56:14;5.10;99.90
17348;DHT22;8791;50.876;4.342;2023-04-03T07:58:40;5.10;99.90
17348;DHT22;8791;50.876;4.342;2023-04-03T08:01:07;5.20;99.90
17348;DHT22;8791;50.876;4.342;2023-04-03T08:03:34;5.20;99.90
17348;DHT22;8791;50.876;4.342;2023-04-03T08:06:04;5.20;99.90
17348;DHT22;8791;50.876;4.342;2023-04-03T08:08:33;5.20;99.90
17348;DHT22;8791;50.876;4.342;2023-04-03T08:11:00;5.40;99.90
17348;DHT22;8791;50.876;4.342;2023-04-03T08:13:28;5.60;99.90
17348;DHT22;8791;50.876;4.342;2023-04-03T08:15:55;5.70;99.90
17348;DHT22;8791;50.876;4.342;2023-04-03T08:18:23;5.80;99.90
17348;DHT22;8791;50.876;4.342;2023-04-03T08:20:51;5.80;99.90
17348;DHT22;8791;50.876;4.342;2023-04-03T08:23:18;5.70;99.90
17348;DHT22;8791;50.876;4.342;2023-04-03T08:25:47;5.80;99.90
17348;DHT22;8791;50.876;4.342;2023-04-03T08:28:13;5.80;99.90
17348;DHT22;8791;50.876;4.342;2023-04-03T08:30:41;5.80;99.90
17348;DHT22;8791;50.876;4.342;2023-04-03T08:33:09;5.90;99.90
17348;DHT22;8791;50.876;4.342;2023-04-03T08:35:38;5.90;99.90
17348;DHT22;8791;50.876;4.342;2023-04-03T08:38:06;5.90;99.90
17348;DHT22;8791;50.876;4.342;2023-04-03T08:40:33;5.90;99.90
17348;DHT22;8791;50.876;4.342;2023-04-03T08:43:16;5.90;99.90
17348;DHT22;8791;50.876;4.342;2023-04-03T08:45:50;6.00;99.90
17348;DHT22;8791;50.876;4.342;2023-04-03T08:48:20;6.10;99.90
17348;DHT22;8791;50.876;4.342;2023-04-03T08:50:51;6.10;99.90
17348;DHT22;8791;50.876;4.342;2023-04-03T08:53:21;6.10;99.90
17348;DHT22;8791;50.876;4.342;2023-04-03T08:55:49;6.00;99.90
17348;DHT22;8791;50.876;4.342;2023-04-03T08:58:20;6.20;99.90
17348;DHT22;8791;50.876;4.342;2023-04-03T09:00:49;6.20;99.90
17348;DHT22;8791;50.876;4.342;2023-04-03T09:03:18;6.50;99.90
17348;DHT22;8791;50.876;4.342;2023-04-03T09:05:49;6.50;99.90
17348;DHT22;8791;50.876;4.342;2023-04-03T09:08:23;6.70;99.90
17348;DHT22;8791;50.876;4.342;2023-04-03T09:10:58;6.70;99.90
17348;DHT22;8791;50.876;4.342;2023-04-03T09:13:33;6.90;99.90
17348;DHT22;8791;50.876;4.342;2023-04-03T09:16:10;7.00;99.90
17348;DHT22;8791;50.876;4.342;2023-04-03T09:18:45;7.10;99.90
17348;DHT22;8791;50.876;4.342;2023-04-03T09:21:19;7.10;99.90
17348;DHT22;8791;50.876;4.342;2023-04-03T09:23:50;7.10;99.90
17348;DHT22;8791;50.876;4.342;2023-04-03T09:26:21;7.20;99.90
17348;DHT22;8791;50.876;4.342;2023-04-03T09:28:52;7.30;99.90
17348;DHT22;8791;50.876;4.342;2023-04-03T09:31:22;7.30;99.90
17348;DHT22;8791;50.876;4.342;2023-04-03T09:33:52;7.40;99.90
17348;DHT22;8791;50.876;4.342;2023-04-03T09:36:47;7.40;99.90
17348;DHT22;8791;50.876;4.342;2023-04-03T09:39:16;7.30;99.90
17348;DHT22;8791;50.876;4.342;2023-04-03T09:41:56;7.40;99.90
17348;DHT22;8791;50.876;4.342;2023-04-03T09:44:26;7.40;99.90
17348;DHT22;8791;50.876;4.342;2023-04-03T09:46:53;7.60;99.90
17348;DHT22;8791;50.876;4.342;2023-04-03T09:49:21;7.70;99.90
17348;DHT22;8791;50.876;4.342;2023-04-03T09:51:48;7.70;99.90
17348;DHT22;8791;50.876;4.342;2023-04-03T09:54:33;7.80;99.90
17348;DHT22;8791;50.876;4.342;2023-04-03T09:57:04;7.90;99.90
17348;DHT22;8791;50.876;4.342;2023-04-03T09:59:34;7.90;99.90
17348;DHT22;8791;50.876;4.342;2023-04-03T10:02:03;8.00;99.90
17348;DHT22;8791;50.876;4.342;2023-04-03T10:04:40;7.90;99.90
17348;DHT22;8791;50.876;4.342;2023-04-03T10:07:32;7.80;99.90
17348;DHT22;8791;50.876;4.342;2023-04-03T10:10:01;7.80;99.90
17348;DHT22;8791;50.876;4.342;2023-04-03T10:12:29;7.90;99.90
17348;DHT22;8791;50.876;4.342;2023-04-03T10:14:58;7.90;99.90
17348;DHT22;8791;50.876;4.342;2023-04-03T10:17:46;8.00;99.90
17348;DHT22;8791;50.876;4.342;2023-04-03T10:20:27;8.10;99.90
17348;DHT22;8791;50.876;4.342;2023-04-03T10:23:02;8.30;99.90
17348;DHT22;8791;50.876;4.342;2023-04-03T10:25:34;8.40;99.90
17348;DHT22;8791;50.876;4.342;2023-04-03T10:28:09;8.40;99.90
17348;DHT22;8791;50.876;4.342;2023-04-03T10:30:47;8.50;99.90
17348;DHT22;8791;50.876;4.342;2023-04-03T10:33:24;8.70;99.90
17348;DHT22;8791;50.876;4.342;2023-04-03T10:36:02;8.80;99.90
17348;DHT22;8791;50.876;4.342;2023-04-03T10:38:42;8.70;99.90
17348;DHT22;8791;50.876;4.342;2023-04-03T10:41:14;8.80;99.90
17348;DHT22;8791;50.876;4.342;2023-04-03T10:43:46;8.90;99.90
17348;DHT22;8791;50.876;4.342;2023-04-03T10:46:22;9.00;99.90
17348;DHT22;8791;50.876;4.342;2023-04-03T10:49:03;9.00;99.90
17348;DHT22;8791;50.876;4.342;2023-04-03T10:51:38;9.00;99.90
17348;DHT22;8791;50.876;4.342;2023-04-03T10:54:11;8.90;99.90
17348;DHT22;8791;50.876;4.342;2023-04-03T10:56:41;8.80;99.90
17348;DHT22;8791;50.876;4.342;2023-04-03T10:59:21;8.70;99.90
17348;DHT22;8791;50.876;4.342;2023-04-03T11:01:54;8.80;99.90
17348;DHT22;8791;50.876;4.342;2023-04-03T11:04:23;8.80;99.90
17348;DHT22;8791;50.876;4.342;2023-04-03T11:06:57;8.80;99.90
17348;DHT22;8791;50.876;4.342;2023-04-03T11:09:27;9.00;99.90
17348;DHT22;8791;50.876;4.342;2023-04-03T11:12:00;9.30;99.90
17348;DHT22;8791;50.876;4.342;2023-04-03T11:14:30;9.50;99.90
17348;DHT22;8791;50.876;4.342;2023-04-03T11:17:08;9.50;99.90
17348;DHT22;8791;50.876;4.342;2023-04-03T11:19:42;9.40;99.90
17348;DHT22;8791;50.876;4.342;2023-04-03T11:22:17;9.30;99.90
17348;DHT22;8791;50.876;4.342;2023-04-03T11:24:56;9.30;99.90
17348;DHT22;8791;50.876;4.342;2023-04-03T11:27:25;9.20;99.90
17348;DHT22;8791;50.876;4.342;2023-04-03T11:29:57;9.20;99.90
17348;DHT22;8791;50.876;4.342;2023-04-03T11:32:54;9.00;99.90
17348;DHT22;8791;50.876;4.342;2023-04-03T11:35:24;9.30;99.90
17348;DHT22;8791;50.876;4.342;2023-04-03T11:37:52;9.60;99.90
17348;DHT22;8791;50.876;4.342;2023-04-03T11:40:24;9.60;99.90
17348;DHT22;8791;50.876;4.342;2023-04-03T11:42:53;9.40;99.90
17348;DHT22;8791;50.876;4.342;2023-04-03T11:45:31;9.50;99.90
17348;DHT22;8791;50.876;4.342;2023-04-03T11:48:02;9.40;99.90
17348;DHT22;8791;50.876;4.342;2023-04-03T11:50:44;9.40;99.90
17348;DHT22;8791;50.876;4.342;2023-04-03T11:53:30;9.50;99.90
17348;DHT22;8791;50.876;4.342;2023-04-03T11:55:59;9.60;99.90
17348;DHT22;8791;50.876;4.342;2023-04-03T11:58:27;9.60;99.90
17348;DHT22;8791;50.876;4.342;2023-04-03T12:01:03;9.70;99.90
17348;DHT22;8791;50.876;4.342;2023-04-03T12:03:57;9.80;99.90
17348;DHT22;8791;50.876;4.342;2023-04-03T12:10:14;9.90;99.90
17348;DHT22;8791;50.876;4.342;2023-04-03T12:12:43;9.90;99.90
17348;DHT22;8791;50.876;4.342;2023-04-03T12:15:38;9.80;99.90
17348;DHT22;8791;50.876;4.342;2023-04-03T12:21:21;9.70;99.90
17348;DHT22;8791;50.876;4.342;2023-04-03T12:24:00;9.80;99.90
17348;DHT22;8791;50.876;4.342;2023-04-03T12:26:35;9.80;99.90
17348;DHT22;8791;50.876;4.342;2023-04-03T12:29:13;9.80;99.90
17348;DHT22;8791;50.876;4.342;2023-04-03T12:31:48;9.80;99.90
17348;DHT22;8791;50.876;4.342;2023-04-03T12:34:26;9.60;99.90
17348;DHT22;8791;50.876;4.342;2023-04-03T12:37:07;9.60;99.90
17348;DHT22;8791;50.876;4.342;2023-04-03T12:39:49;9.70;99.90
17348;DHT22;8791;50.876;4.342;2023-04-03T12:42:29;9.60;99.90
17348;DHT22;8791;50.876;4.342;2023-04-03T12:45:03;9.50;99.90
17348;DHT22;8791;50.876;4.342;2023-04-03T12:47:37;9.70;99.90
17348;DHT22;8791;50.876;4.342;2023-04-03T12:50:17;9.70;99.90
17348;DHT22;8791;50.876;4.342;2023-04-03T12:52:51;9.90;99.90
17348;DHT22;8791;50.876;4.342;2023-04-03T12:55:21;9.80;99.90
17348;DHT22;8791;50.876;4.342;2023-04-03T12:57:48;9.90;99.90
17348;DHT22;8791;50.876;4.342;2023-04-03T13:00:29;10.00;99.90
17348;DHT22;8791;50.876;4.342;2023-04-03T13:02:58;9.90;99.90
17348;DHT22;8791;50.876;4.342;2023-04-03T13:05:25;9.90;99.90
17348;DHT22;8791;50.876;4.342;2023-04-03T13:07:58;9.90;99.90
17348;DHT22;8791;50.876;4.342;2023-04-03T13:10:25;10.00;99.90
17348;DHT22;8791;50.876;4.342;2023-04-03T13:12:54;10.20;99.90
17348;DHT22;8791;50.876;4.342;2023-04-03T13:15:23;10.10;99.90
17348;DHT22;8791;50.876;4.342;2023-04-03T13:17:51;10.00;98.80
17348;DHT22;8791;50.876;4.342;2023-04-03T13:20:22;10.00;98.50
17348;DHT22;8791;50.876;4.342;2023-04-03T13:22:55;9.90;98.20
17348;DHT22;8791;50.876;4.342;2023-04-03T13:25:24;10.00;98.70
17348;DHT22;8791;50.876;4.342;2023-04-03T13:27:52;10.00;96.50
17348;DHT22;8791;50.876;4.342;2023-04-03T13:30:23;10.10;96.20
17348;DHT22;8791;50.876;4.342;2023-04-03T13:32:51;10.30;95.40
17348;DHT22;8791;50.876;4.342;2023-04-03T13:35:30;10.20;93.90
17348;DHT22;8791;50.876;4.342;2023-04-03T13:38:00;10.10;92.40
17348;DHT22;8791;50.876;4.342;2023-04-03T13:40:28;10.00;92.90
17348;DHT22;8791;50.876;4.342;2023-04-03T13:43:04;10.00;92.50
17348;DHT22;8791;50.876;4.342;2023-04-03T13:45:33;10.10;91.80
17348;DHT22;8791;50.876;4.342;2023-04-03T13:48:16;10.20;92.30
17348;DHT22;8791;50.876;4.342;2023-04-03T13:51:05;10.30;92.40
17348;DHT22;8791;50.876;4.342;2023-04-03T13:53:42;10.20;92.60
17348;DHT22;8791;50.876;4.342;2023-04-03T13:56:17;10.20;93.20
17348;DHT22;8791;50.876;4.342;2023-04-03T13:58:57;10.10;93.80
17348;DHT22;8791;50.876;4.342;2023-04-03T14:01:25;10.10;93.30
17348;DHT22;8791;50.876;4.342;2023-04-03T14:04:00;10.10;93.50
17348;DHT22;8791;50.876;4.342;2023-04-03T14:06:28;10.10;93.60
17348;DHT22;8791;50.876;4.342;2023-04-03T14:08:56;10.20;93.70
17348;DHT22;8791;50.876;4.342;2023-04-03T14:11:28;10.50;94.00
17348;DHT22;8791;50.876;4.342;2023-04-03T14:13:56;10.50;93.20
17348;DHT22;8791;50.876;4.342;2023-04-03T14:16:28;10.40;93.20
17348;DHT22;8791;50.876;4.342;2023-04-03T14:18:56;10.40;92.80
17348;DHT22;8791;50.876;4.342;2023-04-03T14:21:23;10.40;92.20
17348;DHT22;8791;50.876;4.342;2023-04-03T14:23:51;10.30;92.10
17348;DHT22;8791;50.876;4.342;2023-04-03T14:26:21;10.30;92.30
17348;DHT22;8791;50.876;4.342;2023-04-03T14:28:49;10.20;92.70
17348;DHT22;8791;50.876;4.342;2023-04-03T14:31:18;10.30;92.30
17348;DHT22;8791;50.876;4.342;2023-04-03T14:33:45;10.40;92.50
17348;DHT22;8791;50.876;4.342;2023-04-03T14:36:14;10.30;91.30
17348;DHT22;8791;50.876;4.342;2023-04-03T14:38:42;10.20;92.00
17348;DHT22;8791;50.876;4.342;2023-04-03T14:41:11;10.40;93.20
17348;DHT22;8791;50.876;4.342;2023-04-03T14:43:40;10.50;91.20
17348;DHT22;8791;50.876;4.342;2023-04-03T14:46:13;10.40;90.60
17348;DHT22;8791;50.876;4.342;2023-04-03T14:48:41;10.50;91.10
17348;DHT22;8791;50.876;4.342;2023-04-03T14:51:10;10.50;88.80
17348;DHT22;8791;50.876;4.342;2023-04-03T14:53:38;10.30;90.30
17348;DHT22;8791;50.876;4.342;2023-04-03T14:56:11;10.30;90.90
17348;DHT22;8791;50.876;4.342;2023-04-03T14:58:40;10.20;91.20
17348;DHT22;8791;50.876;4.342;2023-04-03T15:01:09;10.10;91.70
17348;DHT22;8791;50.876;4.342;2023-04-03T15:03:37;10.10;92.30
17348;DHT22;8791;50.876;4.342;2023-04-03T15:06:04;10.40;92.20
17348;DHT22;8791;50.876;4.342;2023-04-03T15:08:31;10.50;92.60
17348;DHT22;8791;50.876;4.342;2023-04-03T15:10:58;10.60;91.60
17348;DHT22;8791;50.876;4.342;2023-04-03T15:13:26;10.60;91.80
17348;DHT22;8791;50.876;4.342;2023-04-03T15:15:54;10.50;91.30
17348;DHT22;8791;50.876;4.342;2023-04-03T15:18:22;10.40;91.30
17348;DHT22;8791;50.876;4.342;2023-04-03T15:20:51;10.60;91.70
17348;DHT22;8791;50.876;4.342;2023-04-03T15:23:19;10.70;91.40
17348;DHT22;8791;50.876;4.342;2023-04-03T15:25:47;10.80;91.30
17348;DHT22;8791;50.876;4.342;2023-04-03T15:28:19;11.00;90.80
17348;DHT22;8791;50.876;4.342;2023-04-03T15:30:47;10.70;90.70
17348;DHT22;8791;50.876;4.342;2023-04-03T15:33:15;10.70;90.00
17348;DHT22;8791;50.876;4.342;2023-04-03T15:35:42;10.40;88.50
17348;DHT22;8791;50.876;4.342;2023-04-03T15:38:10;10.30;88.60
17348;DHT22;8791;50.876;4.342;2023-04-03T15:40:37;10.20;90.10
17348;DHT22;8791;50.876;4.342;2023-04-03T15:43:05;10.20;90.20
17348;DHT22;8791;50.876;4.342;2023-04-03T15:45:33;10.20;90.90
17348;DHT22;8791;50.876;4.342;2023-04-03T15:48:01;10.40;91.00
17348;DHT22;8791;50.876;4.342;2023-04-03T15:50:29;10.50;90.90
17348;DHT22;8791;50.876;4.342;2023-04-03T15:52:56;10.50;90.40
17348;DHT22;8791;50.876;4.342;2023-04-03T15:55:25;10.60;90.10
17348;DHT22;8791;50.876;4.342;2023-04-03T15:57:52;10.60;89.40
17348;DHT22;8791;50.876;4.342;2023-04-03T16:00:19;10.40;89.60
17348;DHT22;8791;50.876;4.342;2023-04-03T16:02:47;10.50;90.30
17348;DHT22;8791;50.876;4.342;2023-04-03T16:05:15;10.60;90.00
17348;DHT22;8791;50.876;4.342;2023-04-03T16:07:44;10.60;90.40
17348;DHT22;8791;50.876;4.342;2023-04-03T16:10:14;10.40;89.60
17348;DHT22;8791;50.876;4.342;2023-04-03T16:12:41;10.40;90.30
17348;DHT22;8791;50.876;4.342;2023-04-03T16:15:08;11.00;90.60
17348;DHT22;8791;50.876;4.342;2023-04-03T16:17:37;12.10;86.30
17348;DHT22;8791;50.876;4.342;2023-04-03T16:20:07;12.30;83.80
17348;DHT22;8791;50.876;4.342;2023-04-03T16:22:35;12.50;83.70